sensor_id;sensor_type;location;lat;lon;timestamp;pressure;altitude;pressure_sealevel;temperature;humidity
53900;BME280;40509;32.858;-116.858;2023-06-04T00:02:26;97703.00;;;22.55;52.87
53900;BME280;40509;32.858;-116.858;2023-06-04T00:04:52;97710.72;;;22.73;53.20
53900;BME280;40509;32.858;-116.858;2023-06-04T00:07:19;97699.22;;;22.82;53.06
53900;BME280;40509;32.858;-116.858;2023-06-04T00:09:46;97708.94;;;22.98;51.83
53900;BME280;40509;32.858;-116.858;2023-06-04T00:12:13;97706.78;;;22.94;51.95
53900;BME280;40509;32.858;-116.858;2023-06-04T00:14:41;97702.66;;;22.91;51.95
53900;BME280;40509;32.858;-116.858;2023-06-04T00:17:08;97704.13;;;23.02;51.85
53900;BME280;40509;32.858;-116.858;2023-06-04T00:19:35;97707.63;;;22.94;51.88
53900;BME280;40509;32.858;-116.858;2023-06-04T00:22:01;97707.44;;;22.96;51.71
53900;BME280;40509;32.858;-116.858;2023-06-04T00:24:28;97701.69;;;23.00;51.67
53900;BME280;40509;32.858;-116.858;2023-06-04T00:26:55;97695.59;;;23.00;51.33
53900;BME280;40509;32.858;-116.858;2023-06-04T00:29:22;97702.34;;;23.02;51.63
53900;BME280;40509;32.858;-116.858;2023-06-04T00:31:49;97690.34;;;23.00;51.50
53900;BME280;40509;32.858;-116.858;2023-06-04T00:34:17;97694.63;;;23.01;51.79
53900;BME280;40509;32.858;-116.858;2023-06-04T00:36:45;97687.03;;;22.98;51.51
53900;BME280;40509;32.858;-116.858;2023-06-04T00:39:11;97686.22;;;22.97;51.57
53900;BME280;40509;32.858;-116.858;2023-06-04T00:41:38;97688.84;;;23.05;51.57
53900;BME280;40509;32.858;-116.858;2023-06-04T00:44:05;97683.75;;;22.96;51.57
53900;BME280;40509;32.858;-116.858;2023-06-04T00:46:33;97690.34;;;23.00;51.51
53900;BME280;40509;32.858;-116.858;2023-06-04T00:49:02;97690.97;;;23.02;51.72
53900;BME280;40509;32.858;-116.858;2023-06-04T00:51:30;97693.94;;;22.99;51.91
53900;BME280;40509;32.858;-116.858;2023-06-04T00:53:58;97703.16;;;22.95;51.56
53900;BME280;40509;32.858;-116.858;2023-06-04T00:56:25;97692.13;;;22.91;52.04
53900;BME280;40509;32.858;-116.858;2023-06-04T00:58:52;97687.88;;;22.90;51.75
53900;BME280;40509;32.858;-116.858;2023-06-04T01:01:43;97686.03;;;23.07;51.23
53900;BME280;40509;32.858;-116.858;2023-06-04T01:04:09;97693.94;;;22.99;51.54
53900;BME280;40509;32.858;-116.858;2023-06-04T01:06:39;97692.97;;;22.92;51.87
53900;BME280;40509;32.858;-116.858;2023-06-04T01:09:10;97694.94;;;22.81;51.88
53900;BME280;40509;32.858;-116.858;2023-06-04T01:11:38;97702.84;;;22.73;52.04
53900;BME280;40509;32.858;-116.858;2023-06-04T01:14:09;97699.41;;;22.72;51.79
53900;BME280;40509;32.858;-116.858;2023-06-04T01:16:39;97697.41;;;22.74;52.17
53900;BME280;40509;32.858;-116.858;2023-06-04T01:19:19;97696.59;;;22.82;51.85
53900;BME280;40509;32.858;-116.858;2023-06-04T01:21:51;97698.06;;;22.85;51.81
53900;BME280;40509;32.858;-116.858;2023-06-04T01:24:21;97707.47;;;22.87;51.99
53900;BME280;40509;32.858;-116.858;2023-06-04T01:26:48;97698.88;;;22.85;52.06
53900;BME280;40509;32.858;-116.858;2023-06-04T01:29:17;97703.16;;;22.86;51.79
53900;BME280;40509;32.858;-116.858;2023-06-04T01:31:44;97704.66;;;22.89;52.07
53900;BME280;40509;32.858;-116.858;2023-06-04T01:34:11;97711.56;;;22.90;51.91
53900;BME280;40509;32.858;-116.858;2023-06-04T01:36:38;97714.03;;;22.92;52.05
53900;BME280;40509;32.858;-116.858;2023-06-04T01:39:05;97713.19;;;22.91;51.90
53900;BME280;40509;32.858;-116.858;2023-06-04T01:41:31;97715.69;;;22.93;51.77
53900;BME280;40509;32.858;-116.858;2023-06-04T01:43:58;97715.69;;;22.93;52.16
53900;BME280;40509;32.858;-116.858;2023-06-04T01:46:25;97712.88;;;22.94;52.02
53900;BME280;40509;32.858;-116.858;2023-06-04T01:48:52;97705.78;;;22.95;52.17
53900;BME280;40509;32.858;-116.858;2023-06-04T01:51:19;97708.25;;;22.96;52.13
53900;BME280;40509;32.858;-116.858;2023-06-04T01:53:46;97704.81;;;22.96;52.32
53900;BME280;40509;32.858;-116.858;2023-06-04T01:56:13;97708.09;;;22.98;52.16
53900;BME280;40509;32.858;-116.858;2023-06-04T01:58:40;97712.53;;;22.97;52.09
53900;BME280;40509;32.858;-116.858;2023-06-04T02:01:07;97713.34;;;22.98;52.53
53900;BME280;40509;32.858;-116.858;2023-06-04T02:03:36;97716.00;;;22.98;52.26
53900;BME280;40509;32.858;-116.858;2023-06-04T02:06:08;97716.16;;;22.96;52.54
53900;BME280;40509;32.858;-116.858;2023-06-04T02:08:35;97729.81;;;23.00;52.46
53900;BME280;40509;32.858;-116.858;2023-06-04T02:11:02;97730.00;;;22.98;52.40
53900;BME280;40509;32.858;-116.858;2023-06-04T02:13:29;97730.63;;;23.00;52.66
53900;BME280;40509;32.858;-116.858;2023-06-04T02:15:56;97721.75;;;23.01;52.29
53900;BME280;40509;32.858;-116.858;2023-06-04T02:18:23;97719.94;;;23.02;52.28
53900;BME280;40509;32.858;-116.858;2023-06-04T02:20:51;97733.94;;;23.02;52.54
53900;BME280;40509;32.858;-116.858;2023-06-04T02:23:18;97726.84;;;23.03;52.63
53900;BME280;40509;32.858;-116.858;2023-06-04T02:25:46;97723.22;;;23.04;52.63
53900;BME280;40509;32.858;-116.858;2023-06-04T02:28:13;97726.03;;;23.02;52.79
53900;BME280;40509;32.858;-116.858;2023-06-04T02:30:41;97717.97;;;23.04;53.07
53900;BME280;40509;32.858;-116.858;2023-06-04T02:33:08;97726.03;;;23.02;53.30
53900;BME280;40509;32.858;-116.858;2023-06-04T02:35:36;97725.19;;;23.02;53.03
53900;BME280;40509;32.858;-116.858;2023-06-04T02:38:04;97729.47;;;23.03;53.09
53900;BME280;40509;32.858;-116.858;2023-06-04T02:40:31;97728.84;;;23.01;53.15
53900;BME280;40509;32.858;-116.858;2023-06-04T02:42:58;97733.09;;;23.02;53.21
53900;BME280;40509;32.858;-116.858;2023-06-04T02:45:25;97729.31;;;23.04;53.14
53900;BME280;40509;32.858;-116.858;2023-06-04T02:47:52;97739.84;;;23.04;53.44
53900;BME280;40509;32.858;-116.858;2023-06-04T02:50:18;97743.31;;;23.05;53.58
53900;BME280;40509;32.858;-116.858;2023-06-04T02:52:46;97742.66;;;23.03;53.79
53900;BME280;40509;32.858;-116.858;2023-06-04T02:55:13;97745.28;;;23.03;53.49
53900;BME280;40509;32.858;-116.858;2023-06-04T02:57:40;97753.19;;;23.03;53.53
53900;BME280;40509;32.858;-116.858;2023-06-04T03:00:09;97764.53;;;23.03;53.96
53900;BME280;40509;32.858;-116.858;2023-06-04T03:02:43;97758.44;;;23.03;54.04
53900;BME280;40509;32.858;-116.858;2023-06-04T03:05:11;97767.31;;;23.02;54.09
53900;BME280;40509;32.858;-116.858;2023-06-04T03:07:40;97774.91;;;23.05;53.62
53900;BME280;40509;32.858;-116.858;2023-06-04T03:10:09;97765.53;;;23.02;53.64
53900;BME280;40509;32.858;-116.858;2023-06-04T03:12:36;97772.59;;;23.02;53.74
53900;BME280;40509;32.858;-116.858;2023-06-04T03:15:03;97776.69;;;23.04;53.79
53900;BME280;40509;32.858;-116.858;2023-06-04T03:17:33;97781.97;;;23.04;53.67
53900;BME280;40509;32.858;-116.858;2023-06-04T03:20:00;97783.94;;;23.02;54.08
53900;BME280;40509;32.858;-116.858;2023-06-04T03:22:30;97794.47;;;23.02;54.07
53900;BME280;40509;32.858;-116.858;2023-06-04T03:24:57;97802.38;;;23.02;53.81
53900;BME280;40509;32.858;-116.858;2023-06-04T03:27:23;97810.28;;;23.02;53.84
53900;BME280;40509;32.858;-116.858;2023-06-04T03:29:51;97812.91;;;23.02;53.91
53900;BME280;40509;32.858;-116.858;2023-06-04T03:32:18;97825.22;;;23.02;53.84
53900;BME280;40509;32.858;-116.858;2023-06-04T03:34:47;97833.13;;;23.02;53.89
53900;BME280;40509;32.858;-116.858;2023-06-04T03:37:14;97824.25;;;23.03;54.21
53900;BME280;40509;32.858;-116.858;2023-06-04T03:39:41;97828.72;;;23.02;53.90
53900;BME280;40509;32.858;-116.858;2023-06-04T03:42:11;97830.50;;;23.02;54.08
53900;BME280;40509;32.858;-116.858;2023-06-04T03:44:38;97831.50;;;23.01;54.31
53900;BME280;40509;32.858;-116.858;2023-06-04T03:47:05;97828.88;;;23.01;53.97
53900;BME280;40509;32.858;-116.858;2023-06-04T03:49:33;97835.75;;;23.02;54.19
53900;BME280;40509;32.858;-116.858;2023-06-04T03:52:00;97826.06;;;23.02;54.08
53900;BME280;40509;32.858;-116.858;2023-06-04T03:54:28;97835.94;;;23.00;53.85
53900;BME280;40509;32.858;-116.858;2023-06-04T03:56:56;97836.78;;;23.01;53.88
53900;BME280;40509;32.858;-116.858;2023-06-04T03:59:23;97832.50;;;23.00;53.91
53900;BME280;40509;32.858;-116.858;2023-06-04T04:01:50;97835.75;;;23.02;54.04
53900;BME280;40509;32.858;-116.858;2023-06-04T04:04:18;97832.50;;;23.00;53.75
53900;BME280;40509;32.858;-116.858;2023-06-04T04:06:45;97838.56;;;23.00;54.03
53900;BME280;40509;32.858;-116.858;2023-06-04T04:09:12;97834.13;;;23.01;53.72
53900;BME280;40509;32.858;-116.858;2023-06-04T04:11:39;97835.94;;;23.00;54.13
53900;BME280;40509;32.858;-116.858;2023-06-04T04:14:06;97839.41;;;23.01;53.70
53900;BME280;40509;32.858;-116.858;2023-06-04T04:16:33;97845.66;;;23.00;54.06
53900;BME280;40509;32.858;-116.858;2023-06-04T04:19:02;97837.75;;;23.00;54.11
53900;BME280;40509;32.858;-116.858;2023-06-04T04:21:29;97842.66;;;22.95;54.24
53900;BME280;40509;32.858;-116.858;2023-06-04T04:23:56;97845.63;;;22.92;54.18
53900;BME280;40509;32.858;-116.858;2023-06-04T04:26:23;97848.28;;;22.92;54.06
53900;BME280;40509;32.858;-116.858;2023-06-04T04:28:56;97847.28;;;22.93;54.12
53900;BME280;40509;32.858;-116.858;2023-06-04T04:31:26;97851.56;;;22.94;53.93
53900;BME280;40509;32.858;-116.858;2023-06-04T04:33:57;97860.28;;;22.94;54.25
53900;BME280;40509;32.858;-116.858;2023-06-04T04:36:24;97858.63;;;22.93;54.22
53900;BME280;40509;32.858;-116.858;2023-06-04T04:38:52;97863.09;;;22.93;53.94
53900;BME280;40509;32.858;-116.858;2023-06-04T04:41:23;97860.59;;;22.91;53.90
53900;BME280;40509;32.858;-116.858;2023-06-04T04:43:52;97858.81;;;22.92;53.91
53900;BME280;40509;32.858;-116.858;2023-06-04T04:46:24;97868.50;;;22.91;54.24
53900;BME280;40509;32.858;-116.858;2023-06-04T04:48:52;97870.13;;;22.92;53.89
53900;BME280;40509;32.858;-116.858;2023-06-04T04:51:22;97877.38;;;22.90;53.99
53900;BME280;40509;32.858;-116.858;2023-06-04T04:53:50;97886.91;;;22.91;54.20
53900;BME280;40509;32.858;-116.858;2023-06-04T04:56:17;97885.44;;;22.88;54.11
53900;BME280;40509;32.858;-116.858;2023-06-04T04:58:48;97890.88;;;22.95;53.87
53900;BME280;40509;32.858;-116.858;2023-06-04T05:01:15;97892.03;;;22.93;53.94
53900;BME280;40509;32.858;-116.858;2023-06-04T05:03:43;97892.84;;;22.93;54.08
53900;BME280;40509;32.858;-116.858;2023-06-04T05:06:12;97899.09;;;22.92;53.76
53900;BME280;40509;32.858;-116.858;2023-06-04T05:08:39;97905.19;;;22.93;54.17
53900;BME280;40509;32.858;-116.858;2023-06-04T05:11:07;97913.09;;;22.93;53.97
53900;BME280;40509;32.858;-116.858;2023-06-04T05:13:34;97914.56;;;22.95;53.89
53900;BME280;40509;32.858;-116.858;2023-06-04T05:16:03;97914.56;;;22.95;53.94
53900;BME280;40509;32.858;-116.858;2023-06-04T05:18:38;97910.31;;;22.94;53.63
53900;BME280;40509;32.858;-116.858;2023-06-04T05:21:13;97912.25;;;22.92;53.67
53900;BME280;40509;32.858;-116.858;2023-06-04T05:23:46;97915.88;;;22.91;54.00
53900;BME280;40509;32.858;-116.858;2023-06-04T05:26:16;97910.47;;;22.93;53.61
53900;BME280;40509;32.858;-116.858;2023-06-04T05:28:44;97910.47;;;22.93;53.53
53900;BME280;40509;32.858;-116.858;2023-06-04T05:31:13;97910.31;;;22.94;53.86
53900;BME280;40509;32.858;-116.858;2023-06-04T05:33:42;97913.91;;;22.93;53.66
53900;BME280;40509;32.858;-116.858;2023-06-04T05:36:13;97908.81;;;22.92;53.49
53900;BME280;40509;32.858;-116.858;2023-06-04T05:38:48;97912.41;;;22.90;53.91
53900;BME280;40509;32.858;-116.858;2023-06-04T05:41:26;97899.09;;;22.92;53.68
53900;BME280;40509;32.858;-116.858;2023-06-04T05:43:54;97896.63;;;22.90;53.88
53900;BME280;40509;32.858;-116.858;2023-06-04T05:46:21;97893.34;;;22.88;53.47
53900;BME280;40509;32.858;-116.858;2023-06-04T05:48:49;97898.63;;;22.88;53.83
53900;BME280;40509;32.858;-116.858;2023-06-04T05:51:18;97892.66;;;22.86;53.55
53900;BME280;40509;32.858;-116.858;2023-06-04T05:53:46;97885.59;;;22.87;53.80
53900;BME280;40509;32.858;-116.858;2023-06-04T05:56:13;97886.44;;;22.87;53.67
53900;BME280;40509;32.858;-116.858;2023-06-04T05:58:41;97885.91;;;22.84;53.75
53900;BME280;40509;32.858;-116.858;2023-06-04T06:01:08;97880.66;;;22.84;53.90
53900;BME280;40509;32.858;-116.858;2023-06-04T06:03:35;97869.31;;;22.83;53.70
53900;BME280;40509;32.858;-116.858;2023-06-04T06:06:03;97869.47;;;22.82;53.49
53900;BME280;40509;32.858;-116.858;2023-06-04T06:08:32;97865.19;;;22.81;53.74
53900;BME280;40509;32.858;-116.858;2023-06-04T06:10:58;97868.81;;;22.80;53.76
53900;BME280;40509;32.858;-116.858;2023-06-04T06:13:25;97853.81;;;22.80;53.49
53900;BME280;40509;32.858;-116.858;2023-06-04T06:15:54;97859.09;;;22.80;53.79
53900;BME280;40509;32.858;-116.858;2023-06-04T06:18:22;97855.00;;;22.78;53.49
53900;BME280;40509;32.858;-116.858;2023-06-04T06:20:48;97853.19;;;22.78;53.78
53900;BME280;40509;32.858;-116.858;2023-06-04T06:23:15;97845.63;;;22.75;53.80
53900;BME280;40509;32.858;-116.858;2023-06-04T06:25:44;97844.94;;;22.73;53.80
53900;BME280;40509;32.858;-116.858;2023-06-04T06:28:19;97837.03;;;22.73;53.51
53900;BME280;40509;32.858;-116.858;2023-06-04T06:30:47;97833.44;;;22.74;53.76
53900;BME280;40509;32.858;-116.858;2023-06-04T06:33:14;97830.00;;;22.73;53.61
53900;BME280;40509;32.858;-116.858;2023-06-04T06:35:42;97833.59;;;22.72;53.81
53900;BME280;40509;32.858;-116.858;2023-06-04T06:38:12;97828.50;;;22.71;53.45
53900;BME280;40509;32.858;-116.858;2023-06-04T06:40:40;97825.88;;;22.71;53.75
53900;BME280;40509;32.858;-116.858;2023-06-04T06:43:07;97825.19;;;22.69;53.74
53900;BME280;40509;32.858;-116.858;2023-06-04T06:45:34;97824.38;;;22.68;53.74
53900;BME280;40509;32.858;-116.858;2023-06-04T06:48:01;97817.13;;;22.70;53.55
53900;BME280;40509;32.858;-116.858;2023-06-04T06:50:28;97818.44;;;22.66;53.60
53900;BME280;40509;32.858;-116.858;2023-06-04T06:52:55;97813.84;;;22.68;53.39
53900;BME280;40509;32.858;-116.858;2023-06-04T06:55:22;97812.19;;;22.67;53.77
53900;BME280;40509;32.858;-116.858;2023-06-04T06:57:48;97813.34;;;22.65;53.77
53900;BME280;40509;32.858;-116.858;2023-06-04T07:00:15;97802.97;;;22.63;53.70
53900;BME280;40509;32.858;-116.858;2023-06-04T07:02:43;97802.00;;;22.64;53.81
53900;BME280;40509;32.858;-116.858;2023-06-04T07:05:10;97798.53;;;22.64;53.60
53900;BME280;40509;32.858;-116.858;2023-06-04T07:07:37;97804.47;;;22.66;53.64
53900;BME280;40509;32.858;-116.858;2023-06-04T07:10:04;97798.53;;;22.64;53.70
53900;BME280;40509;32.858;-116.858;2023-06-04T07:12:30;97799.22;;;22.66;53.48
53900;BME280;40509;32.858;-116.858;2023-06-04T07:14:58;97797.38;;;22.66;53.58
53900;BME280;40509;32.858;-116.858;2023-06-04T07:17:25;97804.47;;;22.66;53.24
53900;BME280;40509;32.858;-116.858;2023-06-04T07:19:52;97802.00;;;22.64;53.50
53900;BME280;40509;32.858;-116.858;2023-06-04T07:22:18;97802.97;;;22.63;53.78
53900;BME280;40509;32.858;-116.858;2023-06-04T07:24:45;97803.16;;;22.62;53.37
53900;BME280;40509;32.858;-116.858;2023-06-04T07:27:12;97801.00;;;22.65;53.40
53900;BME280;40509;32.858;-116.858;2023-06-04T07:29:39;97790.63;;;22.64;53.56
53900;BME280;40509;32.858;-116.858;2023-06-04T07:32:07;97793.28;;;22.64;53.48
53900;BME280;40509;32.858;-116.858;2023-06-04T07:34:33;97778.63;;;22.61;53.29
53900;BME280;40509;32.858;-116.858;2023-06-04T07:37:00;97774.53;;;22.59;53.24
53900;BME280;40509;32.858;-116.858;2023-06-04T07:39:27;97765.16;;;22.56;53.59
53900;BME280;40509;32.858;-116.858;2023-06-04T07:41:54;97761.69;;;22.55;53.32
53900;BME280;40509;32.858;-116.858;2023-06-04T07:44:21;97748.53;;;22.55;53.51
53900;BME280;40509;32.858;-116.858;2023-06-04T07:46:48;97745.91;;;22.55;53.74
53900;BME280;40509;32.858;-116.858;2023-06-04T07:49:15;97738.00;;;22.55;53.24
53900;BME280;40509;32.858;-116.858;2023-06-04T07:51:41;97740.47;;;22.57;53.43
53900;BME280;40509;32.858;-116.858;2023-06-04T07:54:08;97743.28;;;22.55;53.34
53900;BME280;40509;32.858;-116.858;2023-06-04T07:56:35;97732.91;;;22.54;53.62
53900;BME280;40509;32.858;-116.858;2023-06-04T07:59:02;97732.75;;;22.55;53.33
53900;BME280;40509;32.858;-116.858;2023-06-04T08:01:29;97739.84;;;22.55;53.34
53900;BME280;40509;32.858;-116.858;2023-06-04T08:03:56;97734.91;;;22.52;53.61
53900;BME280;40509;32.858;-116.858;2023-06-04T08:06:25;97746.25;;;22.52;53.60
53900;BME280;40509;32.858;-116.858;2023-06-04T08:08:52;97740.31;;;22.50;53.61
53900;BME280;40509;32.858;-116.858;2023-06-04T08:11:19;97734.41;;;22.48;53.74
53900;BME280;40509;32.858;-116.858;2023-06-04T08:13:48;97734.41;;;22.48;53.36
53900;BME280;40509;32.858;-116.858;2023-06-04T08:16:15;97730.63;;;22.51;53.30
53900;BME280;40509;32.858;-116.858;2023-06-04T08:19:02;97736.84;;;22.50;53.56
53900;BME280;40509;32.858;-116.858;2023-06-04T08:21:42;97746.56;;;22.49;53.28
53900;BME280;40509;32.858;-116.858;2023-06-04T08:24:15;97735.22;;;22.49;53.40
53900;BME280;40509;32.858;-116.858;2023-06-04T08:27:01;97739.66;;;22.48;53.42
53900;BME280;40509;32.858;-116.858;2023-06-04T08:29:33;97737.19;;;22.47;53.34
53900;BME280;40509;32.858;-116.858;2023-06-04T08:32:07;97732.09;;;22.45;53.39
53900;BME280;40509;32.858;-116.858;2023-06-04T08:34:47;97725.81;;;22.46;53.26
53900;BME280;40509;32.858;-116.858;2023-06-04T08:37:15;97725.81;;;22.46;53.26
53900;BME280;40509;32.858;-116.858;2023-06-04T08:39:42;97720.72;;;22.45;53.20
53900;BME280;40509;32.858;-116.858;2023-06-04T08:42:10;97719.75;;;22.46;53.48
53900;BME280;40509;32.858;-116.858;2023-06-04T08:44:43;97710.03;;;22.46;53.13
53900;BME280;40509;32.858;-116.858;2023-06-04T08:47:10;97712.03;;;22.44;53.29
53900;BME280;40509;32.858;-116.858;2023-06-04T08:49:38;97714.00;;;22.42;53.40
53900;BME280;40509;32.858;-116.858;2023-06-04T08:52:07;97711.22;;;22.44;53.34
53900;BME280;40509;32.858;-116.858;2023-06-04T08:54:34;97707.91;;;22.42;53.57
53900;BME280;40509;32.858;-116.858;2023-06-04T08:57:00;97706.09;;;22.42;53.39
53900;BME280;40509;32.858;-116.858;2023-06-04T09:01:55;97697.41;;;22.42;53.47
53900;BME280;40509;32.858;-116.858;2023-06-04T09:04:21;97695.75;;;22.40;53.50
53900;BME280;40509;32.858;-116.858;2023-06-04T09:06:49;97684.41;;;22.40;53.35
53900;BME280;40509;32.858;-116.858;2023-06-04T09:09:15;97688.69;;;22.41;53.10
53900;BME280;40509;32.858;-116.858;2023-06-04T09:11:55;97685.56;;;22.37;53.34
53900;BME280;40509;32.858;-116.858;2023-06-04T09:14:25;97690.66;;;22.39;53.37
53900;BME280;40509;32.858;-116.858;2023-06-04T09:16:53;97696.06;;;22.37;53.43
53900;BME280;40509;32.858;-116.858;2023-06-04T09:19:21;97691.78;;;22.36;53.51
53900;BME280;40509;32.858;-116.858;2023-06-04T09:24:19;97692.63;;;22.37;53.43
53900;BME280;40509;32.858;-116.858;2023-06-04T09:26:47;97692.91;;;22.34;53.46
53900;BME280;40509;32.858;-116.858;2023-06-04T09:29:14;97692.09;;;22.33;53.65
53900;BME280;40509;32.858;-116.858;2023-06-04T09:31:43;97687.00;;;22.32;53.37
53900;BME280;40509;32.858;-116.858;2023-06-04T09:34:10;97698.50;;;22.31;53.72
53900;BME280;40509;32.858;-116.858;2023-06-04T09:36:37;97706.56;;;22.29;53.49
53900;BME280;40509;32.858;-116.858;2023-06-04T09:39:15;97715.59;;;22.27;53.72
53900;BME280;40509;32.858;-116.858;2023-06-04T09:41:42;97717.25;;;22.28;53.41
53900;BME280;40509;32.858;-116.858;2023-06-04T09:44:09;97708.66;;;22.26;53.44
53900;BME280;40509;32.858;-116.858;2023-06-04T09:46:40;97712.97;;;22.27;53.30
53900;BME280;40509;32.858;-116.858;2023-06-04T09:49:07;97702.28;;;22.28;53.25
53900;BME280;40509;32.858;-116.858;2023-06-04T09:51:33;97694.22;;;22.30;53.31
53900;BME280;40509;32.858;-116.858;2023-06-04T09:54:02;97694.53;;;22.27;53.40
53900;BME280;40509;32.858;-116.858;2023-06-04T09:56:29;97699.00;;;22.26;53.31
53900;BME280;40509;32.858;-116.858;2023-06-04T09:58:59;97699.81;;;22.27;53.62
53900;BME280;40509;32.858;-116.858;2023-06-04T10:01:29;97694.72;;;22.25;53.36
53900;BME280;40509;32.858;-116.858;2023-06-04T10:03:57;97697.50;;;22.23;53.38
53900;BME280;40509;32.858;-116.858;2023-06-04T10:06:24;97691.09;;;22.26;53.28
53900;BME280;40509;32.858;-116.858;2023-06-04T10:08:51;97687.97;;;22.22;53.52
53900;BME280;40509;32.858;-116.858;2023-06-04T10:11:22;97699.28;;;22.23;53.43
53900;BME280;40509;32.858;-116.858;2023-06-04T10:14:02;97688.13;;;22.21;53.43
53900;BME280;40509;32.858;-116.858;2023-06-04T10:16:30;97695.03;;;22.22;53.29
53900;BME280;40509;32.858;-116.858;2023-06-04T10:18:58;97694.38;;;22.20;53.59
53900;BME280;40509;32.858;-116.858;2023-06-04T10:21:26;97693.56;;;22.19;53.47
53900;BME280;40509;32.858;-116.858;2023-06-04T10:23:53;97690.25;;;22.17;53.72
53900;BME280;40509;32.858;-116.858;2023-06-04T10:26:20;97686.81;;;22.17;53.66
53900;BME280;40509;32.858;-116.858;2023-06-04T10:28:47;97682.69;;;22.14;53.47
53900;BME280;40509;32.858;-116.858;2023-06-04T10:31:15;97682.69;;;22.14;53.64
53900;BME280;40509;32.858;-116.858;2023-06-04T10:33:42;97686.13;;;22.15;53.21
53900;BME280;40509;32.858;-116.858;2023-06-04T10:36:42;97687.13;;;22.14;53.32
53900;BME280;40509;32.858;-116.858;2023-06-04T10:39:06;97688.94;;;22.13;53.47
53900;BME280;40509;32.858;-116.858;2023-06-04T10:41:34;97686.31;;;22.13;53.28
53900;BME280;40509;32.858;-116.858;2023-06-04T10:44:01;97679.38;;;22.12;53.24
53900;BME280;40509;32.858;-116.858;2023-06-04T10:46:39;97682.03;;;22.12;53.33
53900;BME280;40509;32.858;-116.858;2023-06-04T10:49:09;97680.41;;;22.11;53.46
53900;BME280;40509;32.858;-116.858;2023-06-04T10:51:41;97669.03;;;22.11;53.42
53900;BME280;40509;32.858;-116.858;2023-06-04T10:54:07;97670.84;;;22.10;53.59
53900;BME280;40509;32.858;-116.858;2023-06-04T10:56:34;97670.19;;;22.08;53.58
53900;BME280;40509;32.858;-116.858;2023-06-04T10:59:12;97665.94;;;22.07;53.52
53900;BME280;40509;32.858;-116.858;2023-06-04T11:01:39;97651.13;;;22.06;53.56
53900;BME280;40509;32.858;-116.858;2023-06-04T11:04:06;97660.81;;;22.05;53.63
53900;BME280;40509;32.858;-116.858;2023-06-04T11:06:33;97669.69;;;22.04;53.60
53900;BME280;40509;32.858;-116.858;2023-06-04T11:09:02;97663.59;;;22.04;53.54
53900;BME280;40509;32.858;-116.858;2023-06-04T11:11:30;97655.72;;;22.04;53.50
53900;BME280;40509;32.858;-116.858;2023-06-04T11:14:10;97662.78;;;22.03;53.39
53900;BME280;40509;32.858;-116.858;2023-06-04T11:16:42;97656.84;;;22.01;53.49
53900;BME280;40509;32.858;-116.858;2023-06-04T11:19:09;97660.31;;;22.02;53.17
53900;BME280;40509;32.858;-116.858;2023-06-04T11:21:35;97647.34;;;22.00;53.31
53900;BME280;40509;32.858;-116.858;2023-06-04T11:24:04;97644.56;;;22.02;53.37
53900;BME280;40509;32.858;-116.858;2023-06-04T11:28:58;97640.28;;;22.01;53.45
53900;BME280;40509;32.858;-116.858;2023-06-04T11:31:25;97640.28;;;22.01;53.29
53900;BME280;40509;32.858;-116.858;2023-06-04T11:33:52;97641.25;;;22.00;53.39
53900;BME280;40509;32.858;-116.858;2023-06-04T11:36:26;97636.00;;;22.00;53.29
53900;BME280;40509;32.858;-116.858;2023-06-04T11:38:57;97638.78;;;21.98;53.50
53900;BME280;40509;32.858;-116.858;2023-06-04T11:41:26;97631.72;;;21.99;53.24
53900;BME280;40509;32.858;-116.858;2023-06-04T11:43:55;97638.63;;;22.00;53.44
53900;BME280;40509;32.858;-116.858;2023-06-04T11:46:23;97636.97;;;21.99;53.34
53900;BME280;40509;32.858;-116.858;2023-06-04T11:48:50;97629.94;;;21.99;53.34
53900;BME280;40509;32.858;-116.858;2023-06-04T11:51:19;97636.50;;;21.95;53.71
53900;BME280;40509;32.858;-116.858;2023-06-04T11:53:46;97631.06;;;21.97;53.47
53900;BME280;40509;32.858;-116.858;2023-06-04T11:56:14;97637.47;;;21.94;53.41
53900;BME280;40509;32.858;-116.858;2023-06-04T11:58:41;97629.06;;;21.90;53.64
53900;BME280;40509;32.858;-116.858;2023-06-04T12:01:08;97617.59;;;21.92;53.50
53900;BME280;40509;32.858;-116.858;2023-06-04T12:03:42;97612.16;;;21.93;53.24
53900;BME280;40509;32.858;-116.858;2023-06-04T12:06:18;97616.78;;;21.91;53.52
53900;BME280;40509;32.858;-116.858;2023-06-04T12:08:55;97608.72;;;21.93;53.18
53900;BME280;40509;32.858;-116.858;2023-06-04T12:13:56;97606.44;;;21.89;53.24
53900;BME280;40509;32.858;-116.858;2023-06-04T12:16:23;97609.88;;;21.90;53.25
53900;BME280;40509;32.858;-116.858;2023-06-04T12:18:51;97619.56;;;21.89;53.38
53900;BME280;40509;32.858;-116.858;2023-06-04T12:21:20;97621.19;;;21.90;53.40
53900;BME280;40509;32.858;-116.858;2023-06-04T12:23:48;97616.09;;;21.89;53.25
53900;BME280;40509;32.858;-116.858;2023-06-04T12:26:22;97611.97;;;21.86;53.48
53900;BME280;40509;32.858;-116.858;2023-06-04T12:29:00;97623.34;;;21.87;53.53
53900;BME280;40509;32.858;-116.858;2023-06-04T12:31:28;97623.16;;;21.88;53.32
53900;BME280;40509;32.858;-116.858;2023-06-04T12:33:58;97630.38;;;21.86;53.60
53900;BME280;40509;32.858;-116.858;2023-06-04T12:36:27;97625.13;;;21.86;53.53
53900;BME280;40509;32.858;-116.858;2023-06-04T12:38:58;97633.34;;;21.83;53.65
53900;BME280;40509;32.858;-116.858;2023-06-04T12:41:27;97639.28;;;21.85;53.53
53900;BME280;40509;32.858;-116.858;2023-06-04T12:43:54;97639.56;;;21.82;53.44
53900;BME280;40509;32.858;-116.858;2023-06-04T12:46:21;97634.31;;;21.82;53.43
53900;BME280;40509;32.858;-116.858;2023-06-04T12:48:49;97634.47;;;21.81;53.52